sensor_id;sensor_type;location;lat;lon;timestamp;P1;durP1;ratioP1;P2;durP2;ratioP2
62268;SDS011;56517;51.634;5.566;2022-12-01T00:01:54;46.97;;;19.05;;
62268;SDS011;56517;51.634;5.566;2022-12-01T00:06:55;45.75;;;19.50;;
62268;SDS011;56517;51.634;5.566;2022-12-01T00:11:55;60.72;;;22.50;;
62268;SDS011;56517;51.634;5.566;2022-12-01T00:16:56;46.55;;;19.30;;
62268;SDS011;56517;51.634;5.566;2022-12-01T00:21:57;54.42;;;20.65;;
62268;SDS011;56517;51.634;5.566;2022-12-01T00:26:57;54.85;;;20.90;;
62268;SDS011;56517;51.634;5.566;2022-12-01T00:31:58;61.58;;;21.75;;
62268;SDS011;56517;51.634;5.566;2022-12-01T00:36:58;51.78;;;20.63;;
62268;SDS011;56517;51.634;5.566;2022-12-01T00:41:59;56.42;;;21.95;;
62268;SDS011;56517;51.634;5.566;2022-12-01T00:46:59;51.88;;;20.95;;
62268;SDS011;56517;51.634;5.566;2022-12-01T00:52:00;63.13;;;24.20;;
62268;SDS011;56517;51.634;5.566;2022-12-01T00:57:00;57.05;;;21.55;;
62268;SDS011;56517;51.634;5.566;2022-12-01T01:02:02;55.80;;;20.67;;
62268;SDS011;56517;51.634;5.566;2022-12-01T01:07:02;56.03;;;21.55;;
62268;SDS011;56517;51.634;5.566;2022-12-01T01:12:03;53.67;;;21.83;;
62268;SDS011;56517;51.634;5.566;2022-12-01T01:17:03;50.97;;;19.83;;
62268;SDS011;56517;51.634;5.566;2022-12-01T01:22:04;59.50;;;22.42;;
62268;SDS011;56517;51.634;5.566;2022-12-01T01:27:04;55.97;;;20.80;;
62268;SDS011;56517;51.634;5.566;2022-12-01T01:32:05;64.20;;;22.42;;
62268;SDS011;56517;51.634;5.566;2022-12-01T01:37:06;62.55;;;22.40;;
62268;SDS011;56517;51.634;5.566;2022-12-01T01:42:08;58.42;;;21.10;;
62268;SDS011;56517;51.634;5.566;2022-12-01T01:47:10;62.60;;;22.50;;
62268;SDS011;56517;51.634;5.566;2022-12-01T01:52:11;52.33;;;20.05;;
62268;SDS011;56517;51.634;5.566;2022-12-01T01:57:12;53.33;;;20.67;;
62268;SDS011;56517;51.634;5.566;2022-12-01T02:02:14;56.65;;;21.52;;
62268;SDS011;56517;51.634;5.566;2022-12-01T02:07:15;65.28;;;22.60;;
62268;SDS011;56517;51.634;5.566;2022-12-01T02:12:21;59.85;;;21.80;;
62268;SDS011;56517;51.634;5.566;2022-12-01T02:17:34;61.13;;;22.10;;
62268;SDS011;56517;51.634;5.566;2022-12-01T02:22:59;62.83;;;22.52;;
62268;SDS011;56517;51.634;5.566;2022-12-01T02:28:15;56.83;;;21.23;;
62268;SDS011;56517;51.634;5.566;2022-12-01T02:38:54;56.00;;;22.58;;
62268;SDS011;56517;51.634;5.566;2022-12-01T02:48:57;56.67;;;21.52;;
62268;SDS011;56517;51.634;5.566;2022-12-01T02:53:58;61.63;;;22.35;;
62268;SDS011;56517;51.634;5.566;2022-12-01T02:58:59;54.20;;;21.52;;
62268;SDS011;56517;51.634;5.566;2022-12-01T03:14:37;51.00;;;21.08;;
62268;SDS011;56517;51.634;5.566;2022-12-01T03:19:40;54.55;;;20.65;;
62268;SDS011;56517;51.634;5.566;2022-12-01T03:24:41;49.38;;;19.95;;
62268;SDS011;56517;51.634;5.566;2022-12-01T03:29:44;53.20;;;21.50;;
62268;SDS011;56517;51.634;5.566;2022-12-01T03:39:52;55.97;;;22.10;;
62268;SDS011;56517;51.634;5.566;2022-12-01T03:44:55;48.08;;;19.88;;
62268;SDS011;56517;51.634;5.566;2022-12-01T03:49:57;54.72;;;22.02;;
62268;SDS011;56517;51.634;5.566;2022-12-01T04:00:18;47.50;;;18.35;;
62268;SDS011;56517;51.634;5.566;2022-12-01T04:05:18;55.67;;;22.58;;
62268;SDS011;56517;51.634;5.566;2022-12-01T04:10:19;54.22;;;20.80;;
62268;SDS011;56517;51.634;5.566;2022-12-01T04:15:19;45.13;;;20.35;;
62268;SDS011;56517;51.634;5.566;2022-12-01T04:20:20;45.78;;;19.95;;
62268;SDS011;56517;51.634;5.566;2022-12-01T04:25:21;48.75;;;21.42;;
62268;SDS011;56517;51.634;5.566;2022-12-01T04:30:21;50.15;;;19.52;;
62268;SDS011;56517;51.634;5.566;2022-12-01T04:35:22;49.47;;;19.63;;
62268;SDS011;56517;51.634;5.566;2022-12-01T04:40:22;47.75;;;21.23;;
62268;SDS011;56517;51.634;5.566;2022-12-01T04:45:23;44.28;;;18.95;;
62268;SDS011;56517;51.634;5.566;2022-12-01T04:50:23;51.53;;;21.48;;
62268;SDS011;56517;51.634;5.566;2022-12-01T04:55:24;58.90;;;21.65;;
62268;SDS011;56517;51.634;5.566;2022-12-01T05:00:24;48.20;;;19.88;;
62268;SDS011;56517;51.634;5.566;2022-12-01T05:05:25;46.70;;;20.95;;
62268;SDS011;56517;51.634;5.566;2022-12-01T05:10:26;53.55;;;21.20;;
62268;SDS011;56517;51.634;5.566;2022-12-01T05:15:27;50.47;;;20.38;;
62268;SDS011;56517;51.634;5.566;2022-12-01T05:20:27;50.30;;;20.08;;
62268;SDS011;56517;51.634;5.566;2022-12-01T05:25:28;55.60;;;21.02;;
62268;SDS011;56517;51.634;5.566;2022-12-01T05:30:28;51.55;;;21.45;;
62268;SDS011;56517;51.634;5.566;2022-12-01T05:35:29;51.17;;;20.75;;
62268;SDS011;56517;51.634;5.566;2022-12-01T05:40:29;53.70;;;21.42;;
62268;SDS011;56517;51.634;5.566;2022-12-01T05:45:30;52.78;;;19.95;;
62268;SDS011;56517;51.634;5.566;2022-12-01T05:50:31;54.03;;;21.17;;
62268;SDS011;56517;51.634;5.566;2022-12-01T05:55:32;55.78;;;22.30;;
62268;SDS011;56517;51.634;5.566;2022-12-01T06:00:32;54.65;;;22.02;;
62268;SDS011;56517;51.634;5.566;2022-12-01T06:05:33;55.65;;;22.70;;
62268;SDS011;56517;51.634;5.566;2022-12-01T06:10:33;51.20;;;22.67;;
62268;SDS011;56517;51.634;5.566;2022-12-01T06:15:34;54.58;;;23.20;;
62268;SDS011;56517;51.634;5.566;2022-12-01T06:20:35;54.60;;;20.05;;
62268;SDS011;56517;51.634;5.566;2022-12-01T06:25:35;54.75;;;21.75;;
62268;SDS011;56517;51.634;5.566;2022-12-01T06:30:36;62.95;;;24.63;;
62268;SDS011;56517;51.634;5.566;2022-12-01T06:35:36;46.60;;;19.88;;
62268;SDS011;56517;51.634;5.566;2022-12-01T06:40:37;52.13;;;19.38;;
62268;SDS011;56517;51.634;5.566;2022-12-01T06:45:37;57.40;;;22.45;;
62268;SDS011;56517;51.634;5.566;2022-12-01T06:50:38;55.10;;;22.25;;
62268;SDS011;56517;51.634;5.566;2022-12-01T06:55:39;59.47;;;23.55;;
62268;SDS011;56517;51.634;5.566;2022-12-01T07:00:39;57.38;;;20.45;;
62268;SDS011;56517;51.634;5.566;2022-12-01T07:05:40;42.22;;;20.95;;
62268;SDS011;56517;51.634;5.566;2022-12-01T07:10:40;52.08;;;21.13;;
62268;SDS011;56517;51.634;5.566;2022-12-01T07:15:41;54.35;;;23.00;;
62268;SDS011;56517;51.634;5.566;2022-12-01T07:20:41;43.92;;;19.67;;
62268;SDS011;56517;51.634;5.566;2022-12-01T07:25:42;54.40;;;22.00;;
62268;SDS011;56517;51.634;5.566;2022-12-01T07:30:42;50.55;;;21.20;;
62268;SDS011;56517;51.634;5.566;2022-12-01T07:35:43;46.80;;;20.67;;
62268;SDS011;56517;51.634;5.566;2022-12-01T07:40:43;51.22;;;22.17;;
62268;SDS011;56517;51.634;5.566;2022-12-01T07:45:44;52.55;;;23.50;;
62268;SDS011;56517;51.634;5.566;2022-12-01T07:50:44;59.60;;;22.30;;
62268;SDS011;56517;51.634;5.566;2022-12-01T07:55:48;54.70;;;21.00;;
62268;SDS011;56517;51.634;5.566;2022-12-01T08:00:49;48.03;;;21.15;;
62268;SDS011;56517;51.634;5.566;2022-12-01T08:05:56;49.95;;;21.63;;
62268;SDS011;56517;51.634;5.566;2022-12-01T08:11:01;45.83;;;20.73;;
62268;SDS011;56517;51.634;5.566;2022-12-01T08:16:02;53.33;;;22.08;;
62268;SDS011;56517;51.634;5.566;2022-12-01T08:21:04;54.38;;;21.00;;
62268;SDS011;56517;51.634;5.566;2022-12-01T08:26:06;52.50;;;20.95;;
62268;SDS011;56517;51.634;5.566;2022-12-01T08:31:08;53.40;;;21.73;;
62268;SDS011;56517;51.634;5.566;2022-12-01T08:36:09;54.38;;;22.50;;
62268;SDS011;56517;51.634;5.566;2022-12-01T08:41:10;51.75;;;21.55;;
62268;SDS011;56517;51.634;5.566;2022-12-01T08:46:11;49.55;;;21.15;;
62268;SDS011;56517;51.634;5.566;2022-12-01T08:51:13;49.17;;;21.33;;
62268;SDS011;56517;51.634;5.566;2022-12-01T08:56:21;49.70;;;21.98;;
62268;SDS011;56517;51.634;5.566;2022-12-01T09:01:22;48.85;;;22.00;;
62268;SDS011;56517;51.634;5.566;2022-12-01T09:06:22;60.53;;;24.67;;
62268;SDS011;56517;51.634;5.566;2022-12-01T09:11:23;59.53;;;23.35;;
62268;SDS011;56517;51.634;5.566;2022-12-01T09:16:23;54.67;;;22.35;;
62268;SDS011;56517;51.634;5.566;2022-12-01T09:21:28;55.38;;;22.27;;
62268;SDS011;56517;51.634;5.566;2022-12-01T09:26:29;52.00;;;21.77;;
62268;SDS011;56517;51.634;5.566;2022-12-01T09:31:30;47.85;;;21.13;;
62268;SDS011;56517;51.634;5.566;2022-12-01T09:36:31;52.33;;;20.50;;
62268;SDS011;56517;51.634;5.566;2022-12-01T09:41:32;53.20;;;21.95;;
62268;SDS011;56517;51.634;5.566;2022-12-01T09:46:36;55.45;;;23.20;;
62268;SDS011;56517;51.634;5.566;2022-12-01T09:51:38;51.88;;;22.05;;
62268;SDS011;56517;51.634;5.566;2022-12-01T09:56:44;52.30;;;22.90;;
62268;SDS011;56517;51.634;5.566;2022-12-01T10:01:45;48.42;;;20.90;;
62268;SDS011;56517;51.634;5.566;2022-12-01T10:06:51;58.95;;;21.90;;
62268;SDS011;56517;51.634;5.566;2022-12-01T10:11:54;58.00;;;22.85;;
62268;SDS011;56517;51.634;5.566;2022-12-01T10:32:16;55.28;;;21.27;;
62268;SDS011;56517;51.634;5.566;2022-12-01T10:37:19;52.88;;;22.13;;
62268;SDS011;56517;51.634;5.566;2022-12-01T10:42:42;55.38;;;20.80;;
62268;SDS011;56517;51.634;5.566;2022-12-01T10:57:43;52.38;;;21.58;;
62268;SDS011;56517;51.634;5.566;2022-12-01T11:02:44;55.88;;;21.75;;
62268;SDS011;56517;51.634;5.566;2022-12-01T11:07:45;45.67;;;20.23;;
62268;SDS011;56517;51.634;5.566;2022-12-01T11:12:51;41.88;;;19.05;;
62268;SDS011;56517;51.634;5.566;2022-12-01T11:17:59;54.63;;;21.23;;
62268;SDS011;56517;51.634;5.566;2022-12-01T11:28:18;47.97;;;19.98;;
62268;SDS011;56517;51.634;5.566;2022-12-01T11:33:20;48.00;;;19.00;;
62268;SDS011;56517;51.634;5.566;2022-12-01T11:38:21;48.08;;;19.95;;
62268;SDS011;56517;51.634;5.566;2022-12-01T11:43:26;38.42;;;17.63;;
62268;SDS011;56517;51.634;5.566;2022-12-01T11:48:29;46.58;;;19.17;;
62268;SDS011;56517;51.634;5.566;2022-12-01T11:58:30;50.50;;;20.60;;
62268;SDS011;56517;51.634;5.566;2022-12-01T12:03:33;49.65;;;20.48;;
62268;SDS011;56517;51.634;5.566;2022-12-01T12:24:32;54.33;;;22.67;;
62268;SDS011;56517;51.634;5.566;2022-12-01T12:29:46;51.38;;;20.00;;
62268;SDS011;56517;51.634;5.566;2022-12-01T12:40:30;46.72;;;20.15;;
62268;SDS011;56517;51.634;5.566;2022-12-01T12:45:48;45.17;;;18.88;;
62268;SDS011;56517;51.634;5.566;2022-12-01T12:51:08;52.13;;;19.90;;
62268;SDS011;56517;51.634;5.566;2022-12-01T12:56:12;44.42;;;18.92;;
62268;SDS011;56517;51.634;5.566;2022-12-01T13:01:15;49.35;;;21.10;;
62268;SDS011;56517;51.634;5.566;2022-12-01T13:06:18;49.00;;;20.85;;
62268;SDS011;56517;51.634;5.566;2022-12-01T13:11:23;50.58;;;19.40;;
62268;SDS011;56517;51.634;5.566;2022-12-01T13:16:27;43.67;;;19.63;;
62268;SDS011;56517;51.634;5.566;2022-12-01T13:21:35;43.28;;;19.77;;
62268;SDS011;56517;51.634;5.566;2022-12-01T13:26:36;44.33;;;18.95;;
62268;SDS011;56517;51.634;5.566;2022-12-01T13:31:41;43.75;;;20.17;;
62268;SDS011;56517;51.634;5.566;2022-12-01T13:36:46;43.00;;;17.77;;
62268;SDS011;56517;51.634;5.566;2022-12-01T13:41:56;43.78;;;19.05;;
62268;SDS011;56517;51.634;5.566;2022-12-01T13:47:00;37.85;;;18.55;;
62268;SDS011;56517;51.634;5.566;2022-12-01T13:57:24;37.95;;;17.73;;
62268;SDS011;56517;51.634;5.566;2022-12-01T14:02:26;44.35;;;19.20;;
62268;SDS011;56517;51.634;5.566;2022-12-01T14:07:34;42.22;;;19.33;;
62268;SDS011;56517;51.634;5.566;2022-12-01T14:12:34;42.85;;;19.65;;
62268;SDS011;56517;51.634;5.566;2022-12-01T14:17:36;42.28;;;19.48;;
62268;SDS011;56517;51.634;5.566;2022-12-01T14:22:38;45.30;;;20.27;;
62268;SDS011;56517;51.634;5.566;2022-12-01T14:27:39;44.47;;;19.98;;
62268;SDS011;56517;51.634;5.566;2022-12-01T14:32:40;49.35;;;20.55;;
62268;SDS011;56517;51.634;5.566;2022-12-01T14:37:42;48.85;;;21.40;;
62268;SDS011;56517;51.634;5.566;2022-12-01T14:42:43;50.55;;;22.88;;
62268;SDS011;56517;51.634;5.566;2022-12-01T14:47:48;49.92;;;22.45;;
62268;SDS011;56517;51.634;5.566;2022-12-01T14:53:00;53.10;;;21.88;;
62268;SDS011;56517;51.634;5.566;2022-12-01T14:58:02;52.97;;;22.75;;
62268;SDS011;56517;51.634;5.566;2022-12-01T15:03:08;47.92;;;21.85;;
62268;SDS011;56517;51.634;5.566;2022-12-01T15:08:13;55.83;;;22.80;;
62268;SDS011;56517;51.634;5.566;2022-12-01T15:18:22;50.35;;;21.58;;
62268;SDS011;56517;51.634;5.566;2022-12-01T15:23:22;53.42;;;22.75;;
62268;SDS011;56517;51.634;5.566;2022-12-01T15:28:33;55.90;;;23.70;;
62268;SDS011;56517;51.634;5.566;2022-12-01T15:33:34;57.70;;;21.80;;
62268;SDS011;56517;51.634;5.566;2022-12-01T15:38:36;52.60;;;20.88;;
62268;SDS011;56517;51.634;5.566;2022-12-01T15:43:37;53.33;;;22.38;;
62268;SDS011;56517;51.634;5.566;2022-12-01T15:48:38;53.10;;;21.80;;
62268;SDS011;56517;51.634;5.566;2022-12-01T15:53:39;51.95;;;21.95;;
62268;SDS011;56517;51.634;5.566;2022-12-01T15:58:45;56.13;;;22.63;;
62268;SDS011;56517;51.634;5.566;2022-12-01T16:08:57;53.83;;;20.70;;
62268;SDS011;56517;51.634;5.566;2022-12-01T16:13:59;54.15;;;21.70;;
62268;SDS011;56517;51.634;5.566;2022-12-01T16:19:02;53.92;;;22.65;;
62268;SDS011;56517;51.634;5.566;2022-12-01T16:24:04;55.92;;;23.13;;
62268;SDS011;56517;51.634;5.566;2022-12-01T16:29:12;57.03;;;23.23;;
62268;SDS011;56517;51.634;5.566;2022-12-01T16:34:14;52.78;;;21.65;;
62268;SDS011;56517;51.634;5.566;2022-12-01T16:39:15;56.97;;;23.08;;
62268;SDS011;56517;51.634;5.566;2022-12-01T16:44:15;53.05;;;22.75;;
62268;SDS011;56517;51.634;5.566;2022-12-01T16:49:16;56.03;;;23.38;;
62268;SDS011;56517;51.634;5.566;2022-12-01T16:54:16;58.95;;;23.38;;
62268;SDS011;56517;51.634;5.566;2022-12-01T16:59:17;51.55;;;21.60;;
62268;SDS011;56517;51.634;5.566;2022-12-01T17:04:17;52.53;;;22.40;;
62268;SDS011;56517;51.634;5.566;2022-12-01T17:09:19;49.75;;;20.30;;
62268;SDS011;56517;51.634;5.566;2022-12-01T17:14:20;52.42;;;21.92;;
62268;SDS011;56517;51.634;5.566;2022-12-01T17:19:20;54.55;;;22.50;;
62268;SDS011;56517;51.634;5.566;2022-12-01T17:24:21;54.58;;;21.45;;
62268;SDS011;56517;51.634;5.566;2022-12-01T17:29:21;52.42;;;22.88;;
62268;SDS011;56517;51.634;5.566;2022-12-01T17:34:22;56.97;;;23.52;;
62268;SDS011;56517;51.634;5.566;2022-12-01T17:39:22;56.38;;;22.60;;
62268;SDS011;56517;51.634;5.566;2022-12-01T17:44:23;45.60;;;21.70;;
62268;SDS011;56517;51.634;5.566;2022-12-01T17:49:23;49.55;;;22.45;;
62268;SDS011;56517;51.634;5.566;2022-12-01T17:54:24;57.28;;;21.92;;
62268;SDS011;56517;51.634;5.566;2022-12-01T17:59:25;50.85;;;21.85;;
62268;SDS011;56517;51.634;5.566;2022-12-01T18:04:25;53.47;;;22.42;;
62268;SDS011;56517;51.634;5.566;2022-12-01T18:09:26;52.72;;;23.13;;
62268;SDS011;56517;51.634;5.566;2022-12-01T18:14:26;64.68;;;25.13;;
62268;SDS011;56517;51.634;5.566;2022-12-01T18:19:27;63.33;;;24.27;;
62268;SDS011;56517;51.634;5.566;2022-12-01T18:24:27;55.50;;;23.00;;
62268;SDS011;56517;51.634;5.566;2022-12-01T18:29:28;62.35;;;27.35;;
62268;SDS011;56517;51.634;5.566;2022-12-01T18:34:28;50.40;;;24.23;;
62268;SDS011;56517;51.634;5.566;2022-12-01T18:39:29;55.58;;;23.95;;
62268;SDS011;56517;51.634;5.566;2022-12-01T18:44:29;63.20;;;25.23;;
62268;SDS011;56517;51.634;5.566;2022-12-01T18:49:30;56.38;;;24.33;;
62268;SDS011;56517;51.634;5.566;2022-12-01T18:54:31;51.90;;;23.48;;
62268;SDS011;56517;51.634;5.566;2022-12-01T18:59:31;58.28;;;24.80;;
62268;SDS011;56517;51.634;5.566;2022-12-01T19:04:32;74.32;;;29.23;;
62268;SDS011;56517;51.634;5.566;2022-12-01T19:09:32;67.88;;;27.50;;
62268;SDS011;56517;51.634;5.566;2022-12-01T19:14:33;65.20;;;25.30;;
62268;SDS011;56517;51.634;5.566;2022-12-01T19:19:33;59.47;;;24.92;;
62268;SDS011;56517;51.634;5.566;2022-12-01T19:24:34;59.88;;;25.55;;
62268;SDS011;56517;51.634;5.566;2022-12-01T19:29:34;61.50;;;22.95;;
62268;SDS011;56517;51.634;5.566;2022-12-01T19:34:35;58.53;;;24.00;;
62268;SDS011;56517;51.634;5.566;2022-12-01T19:39:36;52.30;;;21.63;;
62268;SDS011;56517;51.634;5.566;2022-12-01T19:44:36;59.20;;;23.73;;
62268;SDS011;56517;51.634;5.566;2022-12-01T19:49:37;57.55;;;24.42;;
62268;SDS011;56517;51.634;5.566;2022-12-01T19:54:37;53.03;;;23.52;;
62268;SDS011;56517;51.634;5.566;2022-12-01T19:59:38;54.40;;;22.77;;
62268;SDS011;56517;51.634;5.566;2022-12-01T20:04:39;56.92;;;24.17;;
62268;SDS011;56517;51.634;5.566;2022-12-01T20:09:39;57.50;;;24.27;;
62268;SDS011;56517;51.634;5.566;2022-12-01T20:14:40;51.50;;;23.17;;
62268;SDS011;56517;51.634;5.566;2022-12-01T20:19:40;56.28;;;22.38;;
62268;SDS011;56517;51.634;5.566;2022-12-01T20:24:41;56.97;;;21.85;;
62268;SDS011;56517;51.634;5.566;2022-12-01T20:29:41;53.78;;;22.20;;
62268;SDS011;56517;51.634;5.566;2022-12-01T20:34:42;55.35;;;23.42;;
62268;SDS011;56517;51.634;5.566;2022-12-01T20:39:42;56.85;;;21.95;;
62268;SDS011;56517;51.634;5.566;2022-12-01T20:44:43;56.50;;;22.75;;
62268;SDS011;56517;51.634;5.566;2022-12-01T20:49:43;56.13;;;24.45;;
62268;SDS011;56517;51.634;5.566;2022-12-01T20:54:44;65.32;;;24.50;;
62268;SDS011;56517;51.634;5.566;2022-12-01T20:59:44;67.72;;;23.58;;
62268;SDS011;56517;51.634;5.566;2022-12-01T21:04:45;66.05;;;24.13;;
62268;SDS011;56517;51.634;5.566;2022-12-01T21:09:46;65.68;;;25.63;;
62268;SDS011;56517;51.634;5.566;2022-12-01T21:14:47;61.78;;;23.25;;
62268;SDS011;56517;51.634;5.566;2022-12-01T21:25:09;66.27;;;25.57;;
62268;SDS011;56517;51.634;5.566;2022-12-01T21:30:14;66.90;;;25.17;;
62268;SDS011;56517;51.634;5.566;2022-12-01T21:35:19;73.70;;;26.58;;
62268;SDS011;56517;51.634;5.566;2022-12-01T21:40:21;74.13;;;25.95;;
62268;SDS011;56517;51.634;5.566;2022-12-01T21:45:26;71.20;;;26.95;;
62268;SDS011;56517;51.634;5.566;2022-12-01T21:50:27;82.57;;;28.88;;
62268;SDS011;56517;51.634;5.566;2022-12-01T21:55:31;73.72;;;26.30;;
62268;SDS011;56517;51.634;5.566;2022-12-01T22:00:33;92.65;;;29.25;;
62268;SDS011;56517;51.634;5.566;2022-12-01T22:15:47;92.78;;;28.10;;
62268;SDS011;56517;51.634;5.566;2022-12-01T22:20:47;86.80;;;28.88;;
62268;SDS011;56517;51.634;5.566;2022-12-01T22:25:48;83.78;;;28.10;;
62268;SDS011;56517;51.634;5.566;2022-12-01T22:30:48;81.88;;;29.33;;
62268;SDS011;56517;51.634;5.566;2022-12-01T22:35:50;73.32;;;28.58;;
62268;SDS011;56517;51.634;5.566;2022-12-01T22:51:20;78.15;;;29.40;;
62268;SDS011;56517;51.634;5.566;2022-12-01T22:56:35;80.00;;;28.23;;
62268;SDS011;56517;51.634;5.566;2022-12-01T23:01:36;86.93;;;31.10;;
62268;SDS011;56517;51.634;5.566;2022-12-01T23:11:43;85.07;;;29.73;;
62268;SDS011;56517;51.634;5.566;2022-12-01T23:16:44;89.95;;;31.95;;
62268;SDS011;56517;51.634;5.566;2022-12-01T23:21:45;93.65;;;29.73;;
62268;SDS011;56517;51.634;5.566;2022-12-01T23:26:45;96.15;;;31.65;;
62268;SDS011;56517;51.634;5.566;2022-12-01T23:31:46;88.95;;;31.23;;
62268;SDS011;56517;51.634;5.566;2022-12-01T23:36:47;107.82;;;35.45;;
62268;SDS011;56517;51.634;5.566;2022-12-01T23:41:48;90.78;;;31.25;;
62268;SDS011;56517;51.634;5.566;2022-12-01T23:46:52;97.50;;;34.15;;
62268;SDS011;56517;51.634;5.566;2022-12-01T23:51:55;87.78;;;33.67;;
62268;SDS011;56517;51.634;5.566;2022-12-01T23:56:57;92.20;;;33.25;;
